createdAt,value
2022-09-26T00:00:47.183Z,41.07
2022-09-26T00:03:13.749Z,38.15
2022-09-26T00:05:40.187Z,35.53
2022-09-26T00:08:06.983Z,37.37
2022-09-26T00:10:33.927Z,42.70
2022-09-26T00:13:01.173Z,40.63
2022-09-26T00:15:28.179Z,38.13
2022-09-26T00:17:54.640Z,38.77
2022-09-26T00:20:21.123Z,38.83
2022-09-26T00:22:47.563Z,43.47
2022-09-26T00:25:14.039Z,41.80
2022-09-26T00:27:40.509Z,41.42
2022-09-26T00:30:07.209Z,41.10
2022-09-26T00:32:33.699Z,41.17
2022-09-26T00:35:00.196Z,45.17
2022-09-26T00:37:26.697Z,50.17
2022-09-26T00:39:53.161Z,46.88
2022-09-26T00:42:20.144Z,47.07
2022-09-26T00:44:50.738Z,46.77
2022-09-26T00:47:22.007Z,47.37
2022-09-26T00:49:48.518Z,52.50
2022-09-26T00:52:16.707Z,43.87
2022-09-26T00:54:45.463Z,47.17
2022-09-26T00:57:17.594Z,42.50
2022-09-26T00:59:45.024Z,42.73
2022-09-26T01:02:11.580Z,41.37
2022-09-26T01:04:38.433Z,43.43
2022-09-26T01:07:06.301Z,47.23
2022-09-26T01:09:33.196Z,43.93
2022-09-26T01:12:00.299Z,43.70
2022-09-26T01:14:27.137Z,42.30
2022-09-26T01:16:53.708Z,39.43
2022-09-26T01:19:25.169Z,43.10
2022-09-26T01:21:57.848Z,45.63
2022-09-26T01:24:45.032Z,40.63
2022-09-26T01:27:23.698Z,42.30
2022-09-26T01:30:08.634Z,41.17
2022-09-26T01:32:50.494Z,43.57
2022-09-26T01:35:35.742Z,43.50
2022-09-26T01:38:15.285Z,43.50
2022-09-26T01:41:00.617Z,44.33
2022-09-26T01:43:40.339Z,40.20
2022-09-26T01:46:09.949Z,39.30
2022-09-26T01:48:39.244Z,40.90
2022-09-26T01:51:12.271Z,41.90
2022-09-26T01:54:10.290Z,34.83
2022-09-26T01:56:37.471Z,43.00
2022-09-26T01:59:05.518Z,43.37
2022-09-26T02:01:33.267Z,40.67
2022-09-26T02:04:01.551Z,41.45
2022-09-26T02:06:34.221Z,41.60
2022-09-26T02:09:01.876Z,37.58
2022-09-26T02:11:28.379Z,34.20
2022-09-26T02:14:04.752Z,36.47
2022-09-26T02:16:42.074Z,38.63
2022-09-26T02:19:11.610Z,35.87
2022-09-26T02:21:38.156Z,39.43
2022-09-26T02:24:04.671Z,36.97
2022-09-26T02:26:31.126Z,42.30
2022-09-26T02:28:57.615Z,37.20
2022-09-26T02:31:24.664Z,42.60
2022-09-26T02:33:51.561Z,42.40
2022-09-26T02:36:21.220Z,38.60
2022-09-26T02:38:47.663Z,35.95
2022-09-26T02:41:17.984Z,39.65
2022-09-26T02:43:49.376Z,34.03
2022-09-26T02:46:25.056Z,34.28
2022-09-26T02:48:51.495Z,37.87
2022-09-26T02:51:20.682Z,37.85
2022-09-26T02:53:55.251Z,36.43
2022-09-26T02:56:26.452Z,34.80
2022-09-26T02:59:09.618Z,36.95
2022-09-26T03:01:48.199Z,35.07
2022-09-26T03:04:34.975Z,36.85
2022-09-26T03:07:02.887Z,33.43
2022-09-26T03:09:29.353Z,39.30
2022-09-26T03:11:57.855Z,34.87
2022-09-26T03:14:24.409Z,33.60
2022-09-26T03:16:50.887Z,29.87
2022-09-26T03:19:20.227Z,33.50
2022-09-26T03:21:47.012Z,36.00
2022-09-26T03:24:13.855Z,36.50
2022-09-26T03:26:40.318Z,36.35
2022-09-26T03:29:06.830Z,39.78
2022-09-26T03:31:33.526Z,35.83
2022-09-26T03:34:00.299Z,37.55
2022-09-26T03:36:26.803Z,40.40
2022-09-26T03:38:53.270Z,43.38
2022-09-26T03:41:20.912Z,35.87
2022-09-26T03:43:47.423Z,34.65
2022-09-26T03:46:15.270Z,34.00
2022-09-26T03:48:41.846Z,34.90
2022-09-26T03:51:09.263Z,39.67
2022-09-26T03:53:36.273Z,37.70
2022-09-26T03:56:09.713Z,41.22
2022-09-26T03:58:36.155Z,39.65
2022-09-26T04:01:03.896Z,39.53
2022-09-26T04:03:32.433Z,37.38
2022-09-26T04:05:58.914Z,41.30
2022-09-26T04:08:25.422Z,37.97
2022-09-26T04:10:51.878Z,38.53
2022-09-26T04:13:46.695Z,39.45
2022-09-26T04:16:06.066Z,39.55
2022-09-26T04:18:32.710Z,43.78
2022-09-26T04:21:05.741Z,42.30
2022-09-26T04:23:36.437Z,45.15
2022-09-26T04:26:12.795Z,43.05
2022-09-26T04:28:39.907Z,46.75
2022-09-26T04:31:06.740Z,43.40
2022-09-26T04:33:33.883Z,44.70
2022-09-26T04:36:00.784Z,40.90
2022-09-26T04:38:32.642Z,43.80
2022-09-26T04:41:09.103Z,42.33
2022-09-26T04:43:35.746Z,46.08
2022-09-26T04:46:02.466Z,54.65
2022-09-26T04:48:29.072Z,47.28
2022-09-26T04:50:55.567Z,45.47
2022-09-26T04:53:22.002Z,44.92
2022-09-26T04:55:48.737Z,44.10
2022-09-26T04:58:15.667Z,49.25
2022-09-26T05:00:47.502Z,46.45
2022-09-26T05:03:14.437Z,44.58
2022-09-26T05:05:41.433Z,44.33
2022-09-26T05:08:08.022Z,50.05
2022-09-26T05:10:34.544Z,41.80
2022-09-26T05:13:00.982Z,40.67
2022-09-26T05:15:27.471Z,44.88
2022-09-26T05:17:57.698Z,44.00
2022-09-26T05:20:24.769Z,42.90
2022-09-26T05:22:51.333Z,39.85
2022-09-26T05:25:36.346Z,42.25
2022-09-26T05:28:03.244Z,42.25
2022-09-26T05:30:31.423Z,41.53
2022-09-26T05:32:58.421Z,37.92
2022-09-26T05:35:24.864Z,42.55
2022-09-26T05:37:58.276Z,39.15
2022-09-26T05:40:43.402Z,41.00
2022-09-26T05:43:11.137Z,41.53
2022-09-26T05:45:38.144Z,41.00
2022-09-26T05:48:05.185Z,42.47
2022-09-26T05:50:31.959Z,38.85
2022-09-26T05:52:58.870Z,42.13
2022-09-26T05:55:25.812Z,42.38
2022-09-26T05:57:52.922Z,39.67
2022-09-26T06:00:19.397Z,36.22
2022-09-26T06:02:46.092Z,41.42
2022-09-26T06:05:12.784Z,38.17
2022-09-26T06:07:39.263Z,38.38
2022-09-26T06:10:06.626Z,41.05
2022-09-26T06:12:34.537Z,38.67
2022-09-26T06:15:01.007Z,40.58
2022-09-26T06:17:27.649Z,42.78
2022-09-26T06:19:54.757Z,40.50
2022-09-26T06:22:21.215Z,42.80
2022-09-26T06:24:47.913Z,38.85
2022-09-26T06:27:14.471Z,39.25
2022-09-26T06:29:40.949Z,36.92
2022-09-26T06:32:07.451Z,39.10
2022-09-26T06:34:33.960Z,40.33
2022-09-26T06:37:00.393Z,39.35
2022-09-26T06:39:35.875Z,36.75
2022-09-26T06:42:08.423Z,40.75
2022-09-26T06:44:35.062Z,41.30
2022-09-26T06:47:01.586Z,35.35
2022-09-26T06:49:28.536Z,32.33
2022-09-26T06:51:55.185Z,36.20
2022-09-26T06:54:21.622Z,35.60
2022-09-26T06:56:48.099Z,35.50
2022-09-26T06:59:17.102Z,34.17
2022-09-26T07:01:46.416Z,34.55
2022-09-26T07:04:13.680Z,33.58
2022-09-26T07:06:40.233Z,36.40
2022-09-26T07:09:11.854Z,31.75
2022-09-26T07:11:56.668Z,36.67
2022-09-26T07:14:25.764Z,37.95
2022-09-26T07:16:52.706Z,41.75
2022-09-26T07:19:19.218Z,38.33
2022-09-26T07:21:46.397Z,36.30
2022-09-26T07:24:14.392Z,37.50
2022-09-26T07:26:42.131Z,36.85
2022-09-26T07:29:09.061Z,32.08
2022-09-26T07:31:36.067Z,36.78
2022-09-26T07:34:04.159Z,34.13
2022-09-26T07:36:30.957Z,33.10
2022-09-26T07:38:57.492Z,35.88
2022-09-26T07:41:24.136Z,35.47
2022-09-26T07:44:41.170Z,37.28
2022-09-26T07:46:55.837Z,31.98
2022-09-26T07:49:41.181Z,39.42
2022-09-26T07:52:07.830Z,33.40
2022-09-26T07:54:35.312Z,32.20
2022-09-26T07:57:01.748Z,32.45
2022-09-26T07:59:28.285Z,34.35
2022-09-26T08:01:54.932Z,31.60
2022-09-26T08:04:21.522Z,31.88
2022-09-26T08:06:47.952Z,36.42
2022-09-26T08:09:15.196Z,36.30
2022-09-26T08:11:42.081Z,34.13
2022-09-26T08:14:08.819Z,31.80
2022-09-26T08:16:39.647Z,36.13
2022-09-26T08:19:07.982Z,39.35
2022-09-26T08:21:34.782Z,36.53
2022-09-26T08:24:02.253Z,31.70
2022-09-26T08:26:28.733Z,37.60
2022-09-26T08:28:55.228Z,34.55
2022-09-26T08:31:22.822Z,37.55
2022-09-26T08:33:49.399Z,35.97
2022-09-26T08:36:16.487Z,32.58
2022-09-26T08:38:42.962Z,33.30
2022-09-26T08:41:32.836Z,31.83
2022-09-26T08:44:05.570Z,36.13
2022-09-26T08:46:50.952Z,32.25
2022-09-26T08:49:24.204Z,31.48
2022-09-26T08:51:51.236Z,30.88
2022-09-26T08:54:20.744Z,32.97
2022-09-26T08:56:48.270Z,35.22
2022-09-26T08:59:27.037Z,33.45
2022-09-26T09:01:54.574Z,33.28
2022-09-26T09:04:22.742Z,33.08
2022-09-26T09:06:50.949Z,34.83
2022-09-26T09:09:17.492Z,37.05
2022-09-26T09:11:51.336Z,30.75
2022-09-26T09:14:17.949Z,32.30
2022-09-26T09:17:00.830Z,32.83
2022-09-26T09:19:27.417Z,30.42
2022-09-26T09:21:59.787Z,30.92
2022-09-26T09:24:30.379Z,35.38
2022-09-26T09:30:21.315Z,32.72
2022-09-26T09:32:52.866Z,37.50
2022-09-26T09:35:20.950Z,32.47
2022-09-26T09:37:48.552Z,37.78
2022-09-26T09:40:20.910Z,32.20
2022-09-26T09:42:54.934Z,31.42
2022-09-26T09:45:41.810Z,35.33
2022-09-26T09:48:17.375Z,30.58
2022-09-26T09:50:50.134Z,29.67
2022-09-26T09:53:25.678Z,27.80
2022-09-26T09:55:52.275Z,30.83
2022-09-26T09:58:21.922Z,26.73
2022-09-26T10:00:51.702Z,26.92
2022-09-26T10:03:20.999Z,29.00
2022-09-26T10:05:48.250Z,26.35
2022-09-26T10:08:16.978Z,25.05
2022-09-26T10:10:48.211Z,21.42
2022-09-26T10:13:15.368Z,20.63
2022-09-26T10:15:56.336Z,16.70
2022-09-26T10:18:25.344Z,18.88
2022-09-26T10:20:54.445Z,17.38
2022-09-26T10:23:31.735Z,16.70
2022-09-26T10:26:03.630Z,18.20
2022-09-26T10:28:31.304Z,16.48
2022-09-26T10:31:05.219Z,16.45
2022-09-26T10:33:33.853Z,17.52
2022-09-26T10:36:05.235Z,17.88
2022-09-26T10:38:31.797Z,15.02
2022-09-26T10:40:59.480Z,15.02
2022-09-26T10:43:32.430Z,14.88
2022-09-26T10:46:07.989Z,15.85
2022-09-26T10:48:48.458Z,15.07
2022-09-26T10:51:23.400Z,15.05
2022-09-26T10:53:52.271Z,13.35
2022-09-26T10:56:23.230Z,11.77
2022-09-26T10:58:52.281Z,13.13
2022-09-26T11:01:22.552Z,12.63
2022-09-26T11:03:49.194Z,12.77
2022-09-26T11:06:24.101Z,10.60
2022-09-26T11:08:51.697Z,12.30
2022-09-26T11:11:21.245Z,12.20
2022-09-26T11:13:59.059Z,13.43
2022-09-26T11:16:26.275Z,10.60
2022-09-26T11:19:11.191Z,10.68
2022-09-26T11:21:56.097Z,10.00
2022-09-26T11:24:22.884Z,8.10
2022-09-26T11:27:08.386Z,8.27
2022-09-26T11:29:40.180Z,10.65
2022-09-26T11:32:06.659Z,8.75
2022-09-26T11:34:33.102Z,8.38
2022-09-26T11:37:01.747Z,7.47
2022-09-26T11:39:34.740Z,6.40
2022-09-26T11:42:08.126Z,6.13
2022-09-26T11:44:40.907Z,6.05
2022-09-26T11:47:31.461Z,9.40
2022-09-26T11:50:16.368Z,8.02
2022-09-26T11:52:49.361Z,6.32
2022-09-26T11:55:36.282Z,5.30
2022-09-26T11:58:17.973Z,4.68
2022-09-26T12:00:50.443Z,7.47
2022-09-26T12:03:50.231Z,6.40
2022-09-26T12:06:25.947Z,7.50
2022-09-26T12:09:11.328Z,7.28
2022-09-26T12:11:45.597Z,5.63
2022-09-26T12:14:37.028Z,5.13
2022-09-26T12:17:07.555Z,5.25
2022-09-26T12:19:37.192Z,5.65
2022-09-26T12:22:25.721Z,3.70
2022-09-26T12:25:11.385Z,3.80
2022-09-26T12:27:58.655Z,4.32
2022-09-26T12:30:26.497Z,4.32
2022-09-26T12:33:02.321Z,4.72
2022-09-26T12:35:47.286Z,4.80
2022-09-26T12:38:20.751Z,4.47
2022-09-26T12:40:57.547Z,5.30
2022-09-26T12:43:24.023Z,3.83
2022-09-26T12:46:09.994Z,3.40
2022-09-26T12:48:39.678Z,2.95
2022-09-26T12:51:16.434Z,2.40
2022-09-26T12:53:42.859Z,2.42
2022-09-26T12:56:22.504Z,2.10
2022-09-26T12:58:55.377Z,2.10
2022-09-26T13:01:28.261Z,2.00
2022-09-26T13:04:00.907Z,1.63
2022-09-26T13:07:02.448Z,1.88
2022-09-26T13:09:55.600Z,1.80
2022-09-26T13:12:33.659Z,2.95
2022-09-26T13:15:02.601Z,2.40
2022-09-26T13:17:33.891Z,2.85
2022-09-26T13:20:20.099Z,2.70
2022-09-26T13:22:51.017Z,4.13
2022-09-26T13:25:29.979Z,4.18
2022-09-26T13:27:56.450Z,4.28
2022-09-26T13:30:28.120Z,4.20
2022-09-26T13:32:57.620Z,4.25
2022-09-26T13:35:24.875Z,4.47
2022-09-26T13:38:14.317Z,4.55
2022-09-26T13:40:43.308Z,4.70
2022-09-26T13:43:13.556Z,5.57
2022-09-26T13:45:46.446Z,4.82
2022-09-26T13:48:14.235Z,4.35
2022-09-26T13:50:41.339Z,4.40
2022-09-26T13:53:08.035Z,4.70
2022-09-26T13:55:35.947Z,4.70
2022-09-26T13:58:04.122Z,4.45
2022-09-26T14:00:30.723Z,4.88
2022-09-26T14:03:16.800Z,4.95
2022-09-26T14:05:43.793Z,5.25
2022-09-26T14:08:44.643Z,5.50
2022-09-26T14:11:32.835Z,5.75
2022-09-26T14:14:17.100Z,5.47
2022-09-26T14:16:49.698Z,5.30
2022-09-26T14:19:16.597Z,5.97
2022-09-26T14:22:02.674Z,6.65
2022-09-26T14:24:38.334Z,6.57
2022-09-26T14:27:11.228Z,7.55
2022-09-26T14:29:42.567Z,7.30
2022-09-26T14:32:10.553Z,8.10
2022-09-26T14:34:57.548Z,7.80
2022-09-26T14:37:26.941Z,7.63
2022-09-26T14:40:00.860Z,7.20
2022-09-26T14:42:33.028Z,8.52
2022-09-26T14:45:00.667Z,9.05
2022-09-26T14:47:27.570Z,9.43
2022-09-26T14:49:55.371Z,9.88
2022-09-26T14:52:21.909Z,8.40
2022-09-26T14:54:48.457Z,8.13
2022-09-26T14:57:25.329Z,8.30
2022-09-26T14:59:51.928Z,8.30
2022-09-26T15:02:26.960Z,7.50
2022-09-26T15:05:04.292Z,8.73
2022-09-26T15:07:35.212Z,7.88
2022-09-26T15:10:20.644Z,8.88
2022-09-26T15:12:50.181Z,6.72
2022-09-26T15:15:26.285Z,3.92
2022-09-26T15:17:55.895Z,3.00
2022-09-26T15:20:22.668Z,3.28
2022-09-26T15:22:50.150Z,3.85
2022-09-26T15:25:16.627Z,4.47
2022-09-26T15:27:46.064Z,3.55
2022-09-26T15:30:16.717Z,2.97
2022-09-26T15:32:43.293Z,2.80
2022-09-26T15:35:11.256Z,3.40
2022-09-26T15:37:37.787Z,4.90
2022-09-26T15:40:20.527Z,6.10
2022-09-26T15:43:00.871Z,5.15
2022-09-26T15:45:27.699Z,6.15
2022-09-26T15:47:55.094Z,6.32
2022-09-26T15:50:23.458Z,5.57
2022-09-26T15:52:52.843Z,6.80
2022-09-26T15:55:21.105Z,10.75
2022-09-26T15:57:48.335Z,6.63
2022-09-26T16:00:15.041Z,7.85
2022-09-26T16:02:41.658Z,8.93
2022-09-26T16:05:12.559Z,7.18
2022-09-26T16:07:41.374Z,7.82
2022-09-26T16:10:21.238Z,11.00
2022-09-26T16:12:48.765Z,10.55
2022-09-26T16:15:19.254Z,10.23
2022-09-26T16:17:52.611Z,13.25
2022-09-26T16:20:19.080Z,11.45
2022-09-26T16:22:52.296Z,12.38
2022-09-26T16:25:18.984Z,13.00
2022-09-26T16:28:11.153Z,16.75
2022-09-26T16:31:00.715Z,18.73
2022-09-26T16:33:31.258Z,15.20
2022-09-26T16:36:24.212Z,18.23
2022-09-26T16:38:57.859Z,31.85
2022-09-26T16:41:56.327Z,20.73
2022-09-26T16:44:23.853Z,12.75
2022-09-26T16:46:54.521Z,13.07
2022-09-26T16:49:27.115Z,16.77
2022-09-26T16:52:29.227Z,13.70
2022-09-26T16:54:56.342Z,17.42
2022-09-26T16:57:23.910Z,17.25
2022-09-26T16:59:50.492Z,20.52
2022-09-26T17:02:17.182Z,23.10
2022-09-26T17:04:43.814Z,15.85
2022-09-26T17:07:11.614Z,18.88
2022-09-26T17:09:41.328Z,16.85
2022-09-26T17:12:11.680Z,15.75
2022-09-26T17:14:40.786Z,16.17
2022-09-26T17:17:08.195Z,12.73
2022-09-26T17:19:41.295Z,13.48
2022-09-26T17:22:14.484Z,14.82
2022-09-26T17:24:42.571Z,19.08
2022-09-26T17:27:13.621Z,16.08
2022-09-26T17:29:49.837Z,14.68
2022-09-26T17:32:28.173Z,17.23
2022-09-26T17:35:00.006Z,18.90
2022-09-26T17:37:26.876Z,16.65
2022-09-26T17:39:54.020Z,17.85
2022-09-26T17:42:20.970Z,18.55
2022-09-26T17:44:48.315Z,17.40
2022-09-26T17:47:15.397Z,19.73
2022-09-26T17:49:42.105Z,18.60
2022-09-26T17:52:34.963Z,17.75
2022-09-26T17:55:02.421Z,18.33
2022-09-26T17:57:30.229Z,19.70
2022-09-26T17:59:57.122Z,22.08
2022-09-26T18:02:26.709Z,18.52
2022-09-26T18:04:53.371Z,21.52
2022-09-26T18:07:22.067Z,21.77
2022-09-26T18:09:49.413Z,22.90
2022-09-26T18:12:16.617Z,16.98
2022-09-26T18:14:43.098Z,18.52
2022-09-26T18:17:12.090Z,18.55
2022-09-26T18:19:39.150Z,18.30
2022-09-26T18:22:06.134Z,18.92
2022-09-26T18:24:32.722Z,26.02
2022-09-26T18:27:03.969Z,36.47
2022-09-26T18:29:33.290Z,22.52
2022-09-26T18:31:59.893Z,24.17
2022-09-26T18:34:26.467Z,30.55
2022-09-26T18:36:56.975Z,37.92
2022-09-26T18:39:24.929Z,38.20
2022-09-26T18:41:53.154Z,32.50
2022-09-26T18:44:20.392Z,29.60
2022-09-26T18:46:48.218Z,28.58
2022-09-26T18:49:14.857Z,31.08
2022-09-26T18:51:41.422Z,32.53
2022-09-26T18:54:14.731Z,35.75
2022-09-26T18:57:00.094Z,35.92
2022-09-26T18:59:29.082Z,42.63
2022-09-26T19:01:56.404Z,48.03
2022-09-26T19:04:22.996Z,38.88
2022-09-26T19:06:52.564Z,42.30
2022-09-26T19:09:19.761Z,34.92
2022-09-26T19:11:46.534Z,29.10
2022-09-26T19:14:13.266Z,33.38
2022-09-26T19:16:40.028Z,30.85
2022-09-26T19:19:06.620Z,30.30
2022-09-26T19:21:36.888Z,29.73
2022-09-26T19:24:26.618Z,36.78
2022-09-26T19:26:53.776Z,41.40
2022-09-26T19:29:37.149Z,36.35
2022-09-26T19:32:03.787Z,38.30
2022-09-26T19:34:32.689Z,41.33
2022-09-26T19:37:01.518Z,35.92
2022-09-26T19:39:28.110Z,38.95
2022-09-26T19:41:54.641Z,31.75
2022-09-26T19:44:21.151Z,33.92
2022-09-26T19:46:47.825Z,36.25
2022-09-26T19:49:15.572Z,33.33
2022-09-26T19:51:42.260Z,33.67
2022-09-26T19:54:16.693Z,34.85
2022-09-26T19:56:43.576Z,34.50
2022-09-26T19:59:10.872Z,33.65
2022-09-26T20:01:37.845Z,32.78
2022-09-26T20:04:04.388Z,30.98
2022-09-26T20:06:31.090Z,29.10
2022-09-26T20:09:01.737Z,30.52
2022-09-26T20:11:28.540Z,34.42
2022-09-26T20:14:13.798Z,27.70
2022-09-26T20:16:41.181Z,28.60
2022-09-26T20:19:08.335Z,24.20
2022-09-26T20:21:34.791Z,28.95
2022-09-26T20:24:01.374Z,30.00
2022-09-26T20:26:29.595Z,29.95
2022-09-26T20:28:56.411Z,28.40
2022-09-26T20:31:23.780Z,27.42
2022-09-26T20:33:51.305Z,25.27
2022-09-26T20:36:20.860Z,29.05
2022-09-26T20:38:48.155Z,22.55
2022-09-26T20:41:33.412Z,30.08
2022-09-26T20:44:03.816Z,25.77
2022-09-26T20:46:40.203Z,30.73
2022-09-26T20:49:07.931Z,26.48
2022-09-26T20:51:35.207Z,20.77
2022-09-26T20:54:02.176Z,26.25
2022-09-26T20:56:28.831Z,25.33
2022-09-26T20:58:55.355Z,21.42
2022-09-26T21:01:21.972Z,24.13
2022-09-26T21:03:52.247Z,28.88
2022-09-26T21:06:19.625Z,24.52
2022-09-26T21:08:46.111Z,25.25
2022-09-26T21:11:13.727Z,27.88
2022-09-26T21:13:40.304Z,22.90
2022-09-26T21:16:06.912Z,28.88
2022-09-26T21:18:33.392Z,27.65
2022-09-26T21:21:04.052Z,29.98
2022-09-26T21:23:30.598Z,33.75
2022-09-26T21:25:57.085Z,34.17
2022-09-26T21:28:26.598Z,27.75
2022-09-26T21:30:57.473Z,32.25
2022-09-26T21:33:24.026Z,38.28
2022-09-26T21:35:50.571Z,35.60
2022-09-26T21:38:17.508Z,40.97
2022-09-26T21:40:44.265Z,32.08
2022-09-26T21:43:12.506Z,36.63
2022-09-26T21:45:39.382Z,31.63
2022-09-26T21:48:05.833Z,32.77
2022-09-26T21:50:32.292Z,31.92
2022-09-26T21:53:00.054Z,31.03
2022-09-26T21:55:29.918Z,28.30
2022-09-26T21:57:58.779Z,30.55
2022-09-26T22:00:25.275Z,30.47
2022-09-26T22:02:51.818Z,28.03
2022-09-26T22:05:18.514Z,28.90
2022-09-26T22:07:44.965Z,31.55
2022-09-26T22:10:11.441Z,27.97
2022-09-26T22:12:37.925Z,28.08
2022-09-26T22:15:04.462Z,26.02
2022-09-26T22:17:31.026Z,25.90
2022-09-26T22:19:57.478Z,32.43
2022-09-26T22:22:24.726Z,26.70
2022-09-26T22:24:51.250Z,25.38
2022-09-26T22:27:17.950Z,30.10
2022-09-26T22:29:44.641Z,27.92
2022-09-26T22:32:11.169Z,28.25
2022-09-26T22:34:37.616Z,28.03
2022-09-26T22:37:04.117Z,29.53
2022-09-26T22:39:30.570Z,26.63
2022-09-26T22:41:57.106Z,32.73
2022-09-26T22:44:23.672Z,29.73
2022-09-26T22:46:50.299Z,28.03
2022-09-26T22:49:16.785Z,28.40
2022-09-26T22:51:43.428Z,26.40
2022-09-26T22:54:09.986Z,31.70
2022-09-26T22:56:36.454Z,29.03
2022-09-26T22:59:03.509Z,35.43
2022-09-26T23:01:30.162Z,34.23
2022-09-26T23:03:57.063Z,27.80
2022-09-26T23:06:23.605Z,34.23
2022-09-26T23:08:50.206Z,29.97
2022-09-26T23:11:18.445Z,29.70
2022-09-26T23:13:45.167Z,28.80
2022-09-26T23:16:12.454Z,25.70
2022-09-26T23:18:39.452Z,28.90
2022-09-26T23:21:12.931Z,30.13
2022-09-26T23:23:39.457Z,32.35
2022-09-26T23:26:06.309Z,30.15
2022-09-26T23:28:33.672Z,27.83
2022-09-26T23:31:07.082Z,30.02
2022-09-26T23:33:33.703Z,28.43
2022-09-26T23:36:00.272Z,33.90
2022-09-26T23:38:26.972Z,30.73
2022-09-26T23:40:53.774Z,34.88
2022-09-26T23:43:20.321Z,30.73
2022-09-26T23:45:46.802Z,35.83
2022-09-26T23:48:13.317Z,27.83
2022-09-26T23:50:39.807Z,29.63
2022-09-26T23:53:06.931Z,26.73
2022-09-26T23:55:33.626Z,29.63
2022-09-26T23:58:00.117Z,26.92
